This is the latest recevied weather packets stored in our database for station/object IU3OVK-13. If no packets are shown the sender has not sent any weather packets the latest 10 day(s).
| Time | Temp. | Humidity | Pressure | Rain* | Wind** | Luminosity | Snow |
|---|---|---|---|---|---|---|---|
| 1777291960 | 25° C | 89% | 1009.2 hPa | - | - | - | - |
| 1777291340 | 23.33° C | 92% | 1010.5 hPa | - | - | - | - |
| 1777290720 | 25° C | 90% | 1010.3 hPa | - | - | - | - |
| 1777288859 | 24.44° C | 91% | 1011.7 hPa | - | - | - | - |
| 1777288239 | 23.89° C | 88% | 1011.9 hPa | - | - | - | - |
| 1777287619 | 25° C | 87% | 1011.9 hPa | - | - | - | - |
| 1777286999 | 25.56° C | 80% | 1012.9 hPa | - | - | - | - |
| 1777286379 | 27.22° C | 76% | 1013.9 hPa | - | - | - | - |
| 1777284516 | 36.67° C | 58% | 1009.8 hPa | - | - | - | - |
| 1777283896 | 36.67° C | 57% | 1008.6 hPa | - | - | - | - |
| 1777283276 | 39.44° C | 57% | 1009 hPa | - | - | - | - |
| 1777282657 | 36.67° C | 60% | 1011.6 hPa | - | - | - | - |
| 1777282036 | 36.67° C | 59% | 1010.6 hPa | - | - | - | - |
| 1777281416 | 41.11° C | 55% | 1008 hPa | - | - | - | - |
| 1777280175 | 40° C | 60% | 1004.1 hPa | - | - | - | - |
| 1777279555 | 38.33° C | 60% | 1001.5 hPa | - | - | - | - |
| 1777278935 | 40° C | 62% | 996.2 hPa | - | - | - | - |
| 1777278315 | 36.11° C | 66% | 998.4 hPa | - | - | - | - |
| 1777277695 | 36.11° C | 70% | 999.5 hPa | - | - | - | - |
| 1777277075 | 34.44° C | 72% | 1003.4 hPa | - | - | - | - |
| 1777275834 | 33.33° C | 75% | 1004.9 hPa | - | - | - | - |
| 1777274594 | 31.11° C | 78% | 1006.2 hPa | - | - | - | - |
| 1777273974 | 30.56° C | 79% | 1003.9 hPa | - | - | - | - |
| 1777272734 | 28.33° C | 89% | 1010.4 hPa | - | - | - | - |
| 1777272113 | 28.33° C | 93% | 1011.4 hPa | - | - | - | - |
* Rain since midnight (hover to see other rain measurements)
** Current wind speed in m/s (hover to see current wind gust speed)